Time;durP1;ratioP1;P1;durP2;ratioP2;P2;SDS_P1;SDS_P2;PMS_P1;PMS_P2;Temp;Humidity;BMP_temperature;BMP_pressure;BME280_temperature;BME280_humidity;BME280_pressure;Samples;Min_cycle;Max_cycle;Signal;HPM_P1;HPM_P2
2022/08/30 00:01:08;;;;;;;18.15;16.60;;;13.70;99.90;;;;;;5006210;28;20102;-72
2022/08/30 00:03:44;;;;;;;19.13;17.63;;;13.70;99.90;;;;;;4979269;28;20406;-73
2022/08/30 00:06:16;;;;;;;21.40;19.35;;;13.60;99.90;;;;;;4999163;28;20045;-73
2022/08/30 00:08:44;;;;;;;21.67;19.88;;;13.50;99.90;;;;;;5004990;28;20069;-72
2022/08/30 00:11:13;;;;;;;21.17;19.55;;;13.30;99.90;;;;;;5001581;28;20132;-72
2022/08/30 00:13:43;;;;;;;22.52;20.70;;;13.30;99.90;;;;;;5004210;28;20050;-72
2022/08/30 00:16:11;;;;;;;21.85;20.10;;;13.10;99.90;;;;;;4963572;28;21314;-72
2022/08/30 00:18:38;;;;;;;22.35;20.42;;;13.10;99.90;;;;;;4987357;28;20068;-72
2022/08/30 00:21:06;;;;;;;20.80;19.08;;;13.10;99.90;;;;;;4965480;28;20611;-71
2022/08/30 00:23:33;;;;;;;21.25;19.50;;;13.00;99.90;;;;;;4982133;28;20092;-72
2022/08/30 00:26:01;;;;;;;18.40;16.90;;;13.10;99.90;;;;;;4998934;28;20066;-72
2022/08/30 00:28:29;;;;;;;17.85;16.45;;;13.10;99.90;;;;;;4978655;28;20864;-72
2022/08/30 00:30:55;;;;;;;18.38;16.98;;;13.20;99.90;;;;;;4984821;28;20397;-72
2022/08/30 00:33:23;;;;;;;20.23;18.45;;;13.20;99.90;;;;;;5004638;28;20222;-72
2022/08/30 00:35:49;;;;;;;19.73;18.13;;;13.30;99.90;;;;;;4981347;28;20042;-73
2022/08/30 00:38:17;;;;;;;19.65;17.98;;;13.40;99.90;;;;;;4991488;28;20038;-72
2022/08/30 00:40:45;;;;;;;19.15;17.55;;;13.40;99.90;;;;;;4980487;28;20451;-72
2022/08/30 00:43:30;;;;;;;19.20;17.65;;;13.40;99.90;;;;;;4977408;28;20062;-72
2022/08/30 00:45:58;;;;;;;19.38;17.98;;;13.40;99.90;;;;;;4985681;28;20061;-72
2022/08/30 00:48:25;;;;;;;19.02;17.50;;;13.20;99.90;;;;;;5002993;28;20041;-72
2022/08/30 00:50:59;;;;;;;19.33;17.75;;;13.20;99.90;;;;;;4981376;28;20460;-75
2022/08/30 00:53:32;;;;;;;19.10;17.50;;;13.40;99.90;;;;;;4999215;28;20045;-74
2022/08/30 00:56:00;;;;;;;17.65;16.35;;;13.50;99.90;;;;;;4993057;28;20491;-74
2022/08/30 00:58:32;;;;;;;16.70;15.38;;;13.70;99.90;;;;;;5001767;28;20041;-73
2022/08/30 01:00:59;;;;;;;15.18;13.85;;;13.80;99.90;;;;;;5002467;28;20072;-74
2022/08/30 01:03:28;;;;;;;15.80;14.27;;;13.80;99.90;;;;;;5002282;28;20366;-73
2022/08/30 01:05:57;;;;;;;15.18;13.77;;;13.70;99.90;;;;;;4984348;28;20100;-72
2022/08/30 01:08:24;;;;;;;16.00;14.90;;;13.70;99.90;;;;;;4986003;28;20563;-73
2022/08/30 01:10:53;;;;;;;17.17;15.80;;;13.70;99.90;;;;;;5000300;28;20156;-72
2022/08/30 01:13:22;;;;;;;17.67;16.08;;;13.60;99.90;;;;;;4997300;28;20117;-72
2022/08/30 01:15:50;;;;;;;16.85;15.48;;;13.50;99.90;;;;;;4978157;28;20480;-73
2022/08/30 01:18:19;;;;;;;18.10;16.77;;;13.40;99.90;;;;;;5002513;28;20042;-73
2022/08/30 01:20:59;;;;;;;17.83;16.33;;;13.30;99.90;;;;;;5004295;28;20055;-72
2022/08/30 01:23:26;;;;;;;19.38;17.67;;;13.20;99.90;;;;;;5002078;28;20068;-73
2022/08/30 01:25:55;;;;;;;20.67;18.80;;;13.00;99.90;;;;;;4986177;28;20050;-73
2022/08/30 01:28:26;;;;;;;18.02;16.27;;;13.10;99.90;;;;;;4999858;28;20045;-72
2022/08/30 01:30:53;;;;;;;15.73;13.90;;;13.40;99.90;;;;;;5002037;28;20524;-72
2022/08/30 01:33:21;;;;;;;14.90;13.55;;;13.60;99.90;;;;;;4982494;28;20049;-72
2022/08/30 01:35:52;;;;;;;14.05;12.77;;;13.60;99.90;;;;;;4997837;28;20045;-73
2022/08/30 01:38:22;;;;;;;12.30;11.40;;;13.70;99.90;;;;;;4996208;28;20049;-72
2022/08/30 01:40:49;;;;;;;12.43;11.52;;;13.70;99.90;;;;;;5002221;28;20108;-72
2022/08/30 01:43:17;;;;;;;12.27;11.38;;;13.80;99.90;;;;;;4999715;28;20589;-73
2022/08/30 01:45:44;;;;;;;11.82;10.98;;;13.80;99.90;;;;;;5005622;28;20632;-72
2022/08/30 01:48:11;;;;;;;11.60;10.70;;;13.80;99.90;;;;;;4980467;28;20374;-73
2022/08/30 01:50:40;;;;;;;12.45;11.18;;;13.90;99.90;;;;;;4982780;28;20054;-73
2022/08/30 01:53:07;;;;;;;12.38;11.38;;;13.80;99.90;;;;;;4981592;28;20108;-73
2022/08/30 01:55:39;;;;;;;13.55;12.38;;;13.60;99.90;;;;;;4969992;28;20072;-73
2022/08/30 01:58:05;;;;;;;12.50;11.63;;;13.60;99.90;;;;;;4981355;28;20049;-73
2022/08/30 02:00:32;;;;;;;15.18;14.07;;;13.50;99.90;;;;;;4970138;28;20075;-73
2022/08/30 02:02:59;;;;;;;15.48;14.38;;;13.30;99.90;;;;;;5001818;28;20050;-73
2022/08/30 02:05:26;;;;;;;16.52;15.10;;;13.20;99.90;;;;;;5004875;28;20049;-73
2022/08/30 02:07:53;;;;;;;16.67;15.38;;;13.10;99.90;;;;;;4983445;28;20288;-73
2022/08/30 02:10:20;;;;;;;18.63;17.25;;;13.10;99.90;;;;;;4981655;28;20045;-72
2022/08/30 02:12:46;;;;;;;18.27;16.88;;;13.00;99.90;;;;;;4998065;28;20042;-73
2022/08/30 02:15:14;;;;;;;17.08;15.57;;;13.10;99.90;;;;;;4998750;28;20080;-73
2022/08/30 02:17:44;;;;;;;17.88;15.55;;;13.30;99.90;;;;;;4997930;28;20069;-73
2022/08/30 02:20:11;;;;;;;16.05;14.85;;;13.40;99.90;;;;;;4980453;28;20151;-73
2022/08/30 02:22:38;;;;;;;17.20;15.60;;;13.40;99.90;;;;;;4981731;28;20144;-72
2022/08/30 02:25:13;;;;;;;17.38;15.75;;;13.40;99.90;;;;;;4997556;28;20046;-72
2022/08/30 02:27:47;;;;;;;18.10;16.40;;;13.30;99.90;;;;;;5001361;28;20451;-72
2022/08/30 02:30:14;;;;;;;17.17;15.63;;;13.20;99.90;;;;;;4999604;28;20050;-73
2022/08/30 02:32:40;;;;;;;18.02;16.50;;;13.20;99.90;;;;;;4985381;28;20454;-73
2022/08/30 02:35:08;;;;;;;18.60;17.00;;;13.20;99.90;;;;;;4994803;28;20103;-73
2022/08/30 02:37:35;;;;;;;17.88;16.17;;;13.10;99.90;;;;;;4980576;28;20235;-72
2022/08/30 02:40:03;;;;;;;17.52;15.95;;;13.00;99.90;;;;;;4979421;28;20081;-72
2022/08/30 02:42:30;;;;;;;17.02;15.65;;;12.90;99.90;;;;;;4998208;28;20060;-73
2022/08/30 02:44:57;;;;;;;18.40;16.80;;;12.80;99.90;;;;;;4997927;28;20068;-73
2022/08/30 02:47:24;;;;;;;18.20;16.60;;;12.80;99.90;;;;;;4985080;28;20034;-72
2022/08/30 02:49:50;;;;;;;18.98;17.35;;;12.80;99.90;;;;;;4981781;28;20124;-72
2022/08/30 02:52:18;;;;;;;17.85;16.20;;;12.60;99.90;;;;;;4977509;28;20243;-73
2022/08/30 02:54:53;;;;;;;18.27;16.60;;;12.50;99.90;;;;;;4985000;28;20048;-72
2022/08/30 02:57:20;;;;;;;18.52;17.10;;;12.50;99.90;;;;;;4996886;28;20173;-72
2022/08/30 02:59:47;;;;;;;18.10;16.48;;;12.40;99.90;;;;;;4999100;28;20518;-72
2022/08/30 03:02:14;;;;;;;19.15;17.33;;;12.60;99.90;;;;;;4995608;28;20042;-73
2022/08/30 03:04:44;;;;;;;17.58;16.08;;;12.50;99.90;;;;;;5002860;28;20153;-72
2022/08/30 03:07:11;;;;;;;17.60;15.90;;;12.50;99.90;;;;;;4971529;28;20052;-72
2022/08/30 03:09:38;;;;;;;18.55;16.63;;;12.40;99.90;;;;;;5041097;22;20064;-72
2022/08/30 03:12:07;;;;;;;17.17;15.63;;;12.60;99.90;;;;;;4999355;28;20561;-72
2022/08/30 03:14:35;;;;;;;16.55;14.80;;;12.60;99.90;;;;;;4986206;28;20054;-75
2022/08/30 03:17:05;;;;;;;16.33;14.75;;;12.50;99.90;;;;;;4996603;28;20049;-73
2022/08/30 03:19:37;;;;;;;17.20;15.80;;;12.30;99.90;;;;;;5007066;28;20099;-74
2022/08/30 03:22:04;;;;;;;16.70;15.38;;;12.10;99.90;;;;;;5001819;28;20069;-73
2022/08/30 03:24:33;;;;;;;17.73;16.23;;;12.00;99.90;;;;;;4995945;28;20096;-74
2022/08/30 03:27:00;;;;;;;19.88;18.08;;;12.10;99.90;;;;;;4992474;28;20095;-75
2022/08/30 03:29:28;;;;;;;19.65;17.85;;;12.10;99.90;;;;;;4997327;28;20052;-74
2022/08/30 03:31:58;;;;;;;19.75;17.75;;;12.10;99.90;;;;;;5019291;28;20041;-74
2022/08/30 03:34:26;;;;;;;23.05;17.05;;;12.00;99.90;;;;;;4994716;28;20128;-73
2022/08/30 03:36:54;;;;;;;17.52;15.98;;;12.00;99.90;;;;;;4994423;28;20064;-74
2022/08/30 03:39:23;;;;;;;18.63;16.67;;;11.90;99.90;;;;;;5010908;28;20046;-74
2022/08/30 03:41:50;;;;;;;18.17;16.33;;;11.90;99.90;;;;;;5017777;28;20107;-74
2022/08/30 03:44:18;;;;;;;16.95;15.55;;;11.80;99.90;;;;;;5017041;28;20155;-74
2022/08/30 03:46:45;;;;;;;17.70;16.08;;;11.80;99.90;;;;;;5011063;28;20077;-74
2022/08/30 03:49:11;;;;;;;18.15;16.65;;;11.70;99.90;;;;;;4981748;28;20042;-74
2022/08/30 03:51:38;;;;;;;20.30;18.15;;;11.80;99.90;;;;;;4993531;28;20045;-75
2022/08/30 03:54:05;;;;;;;18.90;17.30;;;11.80;99.90;;;;;;5013687;28;20100;-74
2022/08/30 03:56:32;;;;;;;18.35;16.50;;;11.70;99.90;;;;;;5006463;28;20049;-73
2022/08/30 03:58:58;;;;;;;17.70;16.23;;;11.70;99.90;;;;;;5015136;28;20145;-73
2022/08/30 04:01:25;;;;;;;19.05;16.98;;;11.60;99.90;;;;;;4998518;28;20069;-73
2022/08/30 04:03:52;;;;;;;18.38;16.77;;;11.70;99.90;;;;;;4995317;28;20125;-73
2022/08/30 04:06:19;;;;;;;20.90;19.00;;;11.60;99.90;;;;;;4995229;28;20041;-73
2022/08/30 04:08:48;;;;;;;21.02;18.85;;;11.60;99.90;;;;;;4992655;28;20049;-73
2022/08/30 04:11:15;;;;;;;22.50;20.00;;;11.60;99.90;;;;;;4987638;28;20099;-73
2022/08/30 04:13:43;;;;;;;20.10;18.00;;;11.60;99.90;;;;;;5019409;28;20178;-72
2022/08/30 04:16:09;;;;;;;19.70;17.70;;;11.60;99.90;;;;;;5016043;28;20668;-73
2022/08/30 04:18:37;;;;;;;23.85;19.05;;;11.60;99.90;;;;;;4991336;28;20334;-73
2022/08/30 04:21:04;;;;;;;21.92;18.88;;;11.70;99.90;;;;;;5013296;28;20054;-75
2022/08/30 04:23:30;;;;;;;25.08;20.08;;;11.80;99.90;;;;;;5009593;28;20152;-72
2022/08/30 04:25:59;;;;;;;30.80;22.13;;;12.00;99.90;;;;;;4990829;28;20092;-72
2022/08/30 04:28:26;;;;;;;28.42;20.55;;;12.20;99.90;;;;;;5005005;28;20084;-72
2022/08/30 04:30:53;;;;;;;28.30;20.58;;;12.40;99.90;;;;;;5006541;28;20099;-75
2022/08/30 04:33:19;;;;;;;25.45;19.20;;;12.40;99.90;;;;;;5011027;28;20072;-74
2022/08/30 04:35:48;;;;;;;30.27;21.63;;;12.60;99.90;;;;;;4995900;28;20456;-73
2022/08/30 04:38:16;;;;;;;31.67;20.10;;;12.70;99.90;;;;;;4997393;28;20061;-74
2022/08/30 04:40:44;;;;;;;19.67;16.25;;;12.70;99.90;;;;;;5018234;28;20127;-73
2022/08/30 04:43:11;;;;;;;16.67;15.13;;;12.70;99.90;;;;;;4993089;28;20053;-72
2022/08/30 04:45:40;;;;;;;17.05;15.25;;;12.40;99.90;;;;;;5017948;28;20068;-73
2022/08/30 04:48:07;;;;;;;16.13;14.77;;;12.20;99.90;;;;;;4988643;28;20154;-72
2022/08/30 04:50:34;;;;;;;17.85;16.15;;;12.10;99.90;;;;;;4992394;28;20042;-72
2022/08/30 04:53:11;;;;;;;18.95;17.02;;;12.00;99.90;;;;;;5015167;28;20057;-73
2022/08/30 04:55:40;;;;;;;21.30;18.50;;;12.10;99.90;;;;;;4998192;28;20054;-73
2022/08/30 04:58:06;;;;;;;22.17;19.65;;;12.00;99.90;;;;;;4992267;28;20050;-72
2022/08/30 05:00:33;;;;;;;22.77;20.38;;;11.90;99.90;;;;;;4997726;28;20049;-73
2022/08/30 05:03:00;;;;;;;21.92;19.60;;;11.90;99.90;;;;;;5033203;28;20037;-72
2022/08/30 05:05:39;;;;;;;29.10;23.90;;;12.10;99.90;;;;;;5009495;28;21446;-73
2022/08/30 05:08:17;;;;;;;37.83;23.20;;;12.20;99.90;;;;;;5016391;28;20045;-73
2022/08/30 05:10:51;;;;;;;38.53;23.77;;;12.40;99.90;;;;;;4999700;28;20041;-73
2022/08/30 05:13:20;;;;;;;36.15;22.67;;;12.50;99.90;;;;;;5013811;28;20045;-74
2022/08/30 05:16:02;;;;;;;32.30;20.88;;;12.50;99.90;;;;;;4994637;28;20067;-73
2022/08/30 05:18:28;;;;;;;24.52;18.30;;;12.60;99.90;;;;;;5015485;28;20049;-73
2022/08/30 05:21:32;;;;;;;16.83;15.13;;;12.50;99.90;;;;;;5018474;28;20099;-73
2022/08/30 05:23:59;;;;;;;21.00;18.85;;;12.30;99.90;;;;;;4996208;28;20073;-73
2022/08/30 05:26:32;;;;;;;26.42;21.20;;;12.20;99.90;;;;;;4997463;28;20047;-73
2022/08/30 05:28:59;;;;;;;18.90;17.00;;;12.20;99.90;;;;;;5015146;28;20049;-73
2022/08/30 05:31:32;;;;;;;17.40;15.65;;;12.30;99.90;;;;;;5013581;28;20498;-73
2022/08/30 05:34:00;;;;;;;17.17;15.70;;;12.10;99.90;;;;;;5011450;28;20049;-72
2022/08/30 05:36:29;;;;;;;18.90;16.48;;;12.20;99.90;;;;;;4989724;28;20504;-73
2022/08/30 05:38:56;;;;;;;18.15;16.45;;;12.20;99.90;;;;;;5012686;28;20065;-72
2022/08/30 05:41:24;;;;;;;21.40;19.20;;;12.20;99.90;;;;;;5017106;28;20057;-73
2022/08/30 05:43:55;;;;;;;29.88;21.52;;;12.30;99.90;;;;;;5007575;28;20053;-72
2022/08/30 05:46:22;;;;;;;34.60;21.05;;;12.40;99.90;;;;;;4996784;28;20103;-72
2022/08/30 05:48:50;;;;;;;29.30;21.38;;;12.60;99.90;;;;;;5011415;28;20637;-73
2022/08/30 05:51:22;;;;;;;30.00;20.80;;;12.70;99.90;;;;;;4990230;28;20096;-73
2022/08/30 05:53:51;;;;;;;20.77;18.65;;;12.80;99.90;;;;;;4997208;28;20069;-73
2022/08/30 05:56:20;;;;;;;21.38;18.58;;;12.80;99.90;;;;;;5003463;28;20046;-74
2022/08/30 05:58:50;;;;;;;23.88;20.25;;;12.90;99.90;;;;;;5016624;28;20052;-74
2022/08/30 06:01:22;;;;;;;21.52;18.05;;;13.10;99.90;;;;;;4991764;28;20061;-73
2022/08/30 06:03:49;;;;;;;29.55;21.75;;;13.30;99.90;;;;;;5006355;28;20042;-73
2022/08/30 06:06:16;;;;;;;31.65;22.42;;;13.60;99.90;;;;;;4996483;28;20073;-73
2022/08/30 06:08:47;;;;;;;25.38;20.65;;;13.70;99.90;;;;;;5007987;28;20042;-73
2022/08/30 06:11:18;;;;;;;27.95;19.90;;;13.90;99.90;;;;;;4991045;28;20033;-74
2022/08/30 06:13:46;;;;;;;27.02;19.95;;;14.10;99.90;;;;;;5002524;28;20120;-73
2022/08/30 06:16:14;;;;;;;27.95;22.67;;;14.10;99.90;;;;;;5008496;28;20119;-74
2022/08/30 06:18:41;;;;;;;25.95;20.38;;;14.10;99.90;;;;;;5011103;28;20041;-73
2022/08/30 06:21:16;;;;;;;24.75;19.42;;;14.20;99.90;;;;;;4997161;28;20057;-72
2022/08/30 06:23:43;;;;;;;;;;;14.30;99.90;;;;;;5013371;28;20050;-74
2022/08/30 06:26:11;;;;;;;25.63;19.45;;;14.40;99.90;;;;;;4999605;28;19952;-73
2022/08/30 06:28:38;;;;;;;24.20;20.38;;;14.40;99.90;;;;;;4991568;28;20033;-74
2022/08/30 06:31:06;;;;;;;27.38;20.63;;;14.50;99.90;;;;;;4979495;28;20069;-73
2022/08/30 06:33:34;;;;;;;24.35;21.50;;;14.60;99.90;;;;;;4985620;28;20048;-73
2022/08/30 06:36:06;;;;;;;27.38;20.48;;;14.70;99.90;;;;;;5013466;28;20076;-73
2022/08/30 06:38:33;;;;;;;25.83;20.98;;;14.60;99.90;;;;;;5017808;28;20099;-72
2022/08/30 06:41:04;;;;;;;29.40;21.90;;;14.70;99.90;;;;;;5012353;28;20057;-73
2022/08/30 06:43:30;;;;;;;23.23;19.77;;;14.70;99.90;;;;;;4970945;28;20119;-73
2022/08/30 06:46:05;;;;;;;20.05;17.88;;;14.80;99.90;;;;;;5011416;28;20042;-73
2022/08/30 06:48:32;;;;;;;24.80;20.70;;;14.80;99.90;;;;;;5003180;28;20046;-73
2022/08/30 06:50:59;;;;;;;24.92;21.05;;;14.70;99.90;;;;;;5010832;28;20088;-73
2022/08/30 06:53:28;;;;;;;22.80;19.70;;;14.70;99.90;;;;;;5005729;28;20042;-73
2022/08/30 06:56:02;;;;;;;22.35;19.90;;;14.80;99.90;;;;;;5000359;28;20601;-73
2022/08/30 06:58:31;;;;;;;22.85;20.10;;;15.00;99.90;;;;;;4989871;28;20503;-73
2022/08/30 07:00:58;;;;;;;20.38;18.00;;;15.00;99.90;;;;;;4996903;28;20710;-74
2022/08/30 07:03:26;;;;;;;19.17;17.23;;;15.10;99.90;;;;;;5012761;28;20458;-73
2022/08/30 07:05:57;;;;;;;19.17;17.17;;;15.30;99.90;;;;;;4996296;28;20104;-71
2022/08/30 07:08:24;;;;;;;18.90;17.02;;;15.30;99.90;;;;;;5013588;28;20686;-73
2022/08/30 07:10:53;;;;;;;17.92;16.02;;;15.50;99.90;;;;;;5008454;28;20040;-73
2022/08/30 07:13:22;;;;;;;16.83;15.35;;;15.60;99.90;;;;;;5019259;28;20049;-72
2022/08/30 07:15:50;;;;;;;18.23;16.63;;;15.80;99.90;;;;;;5017058;28;20420;-73
2022/08/30 07:21:09;;;;;;;19.42;17.73;;;16.10;99.90;;;;;;5015928;28;20057;-72
2022/08/30 07:23:36;;;;;;;21.75;19.83;;;16.10;99.90;;;;;;5016211;28;20080;-73
2022/08/30 07:26:06;;;;;;;21.65;19.67;;;15.90;99.90;;;;;;4999273;28;20041;-72
2022/08/30 07:28:36;;;;;;;22.60;20.70;;;16.00;99.90;;;;;;4999794;28;20038;-72
2022/08/30 07:31:04;;;;;;;22.20;20.20;;;15.70;99.90;;;;;;5017851;28;20072;-70
2022/08/30 07:33:31;;;;;;;22.98;20.83;;;15.70;99.90;;;;;;4997751;28;20072;-71
2022/08/30 07:35:58;;;;;;;20.60;18.80;;;15.70;99.90;;;;;;5012051;28;20582;-71
2022/08/30 07:38:27;;;;;;;21.33;19.13;;;15.60;99.90;;;;;;5012725;28;20076;-72
2022/08/30 07:40:59;;;;;;;21.10;19.10;;;15.30;99.90;;;;;;5013841;28;20038;-72
2022/08/30 07:43:27;;;;;;;22.23;19.88;;;15.10;99.90;;;;;;5015907;28;20041;-71
2022/08/30 07:45:56;;;;;;;21.40;18.75;;;15.10;99.90;;;;;;5018698;28;20056;-70
2022/08/30 07:48:23;;;;;;;21.27;18.77;;;14.60;99.90;;;;;;5008402;28;20320;-71
2022/08/30 07:50:50;;;;;;;21.13;18.90;;;14.70;99.90;;;;;;5015734;28;20524;-71
2022/08/30 07:53:23;;;;;;;22.15;19.77;;;14.70;99.90;;;;;;4982623;28;20387;-71
2022/08/30 07:55:50;;;;;;;23.40;20.90;;;15.00;99.90;;;;;;5003281;28;20046;-72
2022/08/30 07:58:17;;;;;;;22.48;19.98;;;15.30;99.90;;;;;;4996551;28;20050;-71
2022/08/30 08:00:45;;;;;;;22.90;20.70;;;15.70;99.90;;;;;;4999734;28;20126;-70
2022/08/30 08:03:11;;;;;;;24.40;22.02;;;15.60;99.90;;;;;;5014678;28;20100;-72
2022/08/30 08:05:41;;;;;;;25.40;22.83;;;15.80;99.90;;;;;;4988355;28;20043;-71
2022/08/30 08:08:08;;;;;;;25.83;23.45;;;16.00;99.90;;;;;;4995171;28;20555;-72
2022/08/30 08:10:37;;;;;;;25.50;23.02;;;16.10;99.90;;;;;;5003718;28;20057;-73
2022/08/30 08:13:04;;;;;;;28.55;24.27;;;15.90;99.90;;;;;;5011592;28;20080;-71
2022/08/30 08:15:31;;;;;;;25.88;23.10;;;15.80;99.90;;;;;;5027575;28;20053;-72
2022/08/30 08:17:58;;;;;;;24.75;22.63;;;15.90;99.90;;;;;;5018058;28;20476;-72
2022/08/30 08:20:25;;;;;;;27.35;25.00;;;16.50;99.90;;;;;;4995585;28;20041;-72
2022/08/30 08:22:52;;;;;;;29.08;26.50;;;17.00;99.90;;;;;;4995196;28;20072;-72
2022/08/30 08:25:19;;;;;;;28.17;25.88;;;17.20;99.90;;;;;;4977886;28;20615;-71
2022/08/30 08:27:47;;;;;;;27.23;24.83;;;17.00;99.90;;;;;;4994440;28;20068;-72
2022/08/30 08:30:14;;;;;;;28.13;25.63;;;17.00;99.90;;;;;;4999898;28;20049;-72
2022/08/30 08:32:41;;;;;;;29.98;27.02;;;17.00;99.90;;;;;;5013941;28;20596;-71
2022/08/30 08:35:10;;;;;;;27.45;24.95;;;16.30;99.90;;;;;;5002193;28;20067;-70
2022/08/30 08:37:38;;;;;;;27.58;25.08;;;15.90;99.90;;;;;;4985613;28;20050;-71
2022/08/30 08:40:07;;;;;;;27.45;24.90;;;16.10;99.90;;;;;;5008988;28;20480;-72
2022/08/30 08:43:00;;;;;;;28.10;25.55;;;16.30;99.90;;;;;;5013664;28;20099;-71
2022/08/30 08:45:38;;;;;;;29.40;26.67;;;16.50;99.90;;;;;;5013685;28;20507;-71
2022/08/30 08:48:24;;;;;;;30.23;27.63;;;16.60;99.90;;;;;;5010609;28;20061;-71
2022/08/30 08:54:00;;;;;;;29.98;27.25;;;16.60;99.90;;;;;;5017838;28;20463;-71
2022/08/30 08:56:28;;;;;;;28.70;26.27;;;16.60;99.90;;;;;;4980762;28;21319;-72
2022/08/30 08:58:56;;;;;;;29.63;27.15;;;17.40;99.90;;;;;;5009747;28;20041;-72
2022/08/30 09:01:26;;;;;;;29.02;26.63;;;17.50;99.90;;;;;;5010141;28;20053;-72
2022/08/30 09:03:56;;;;;;;30.20;27.65;;;17.30;99.90;;;;;;4997996;28;20087;-71
2022/08/30 09:06:57;;;;;;;30.65;28.13;;;17.70;99.90;;;;;;4993329;28;20635;-71
2022/08/30 09:09:32;;;;;;;30.23;27.70;;;17.30;99.90;;;;;;4990549;28;20750;-72
2022/08/30 09:11:59;;;;;;;29.55;27.17;;;17.60;99.90;;;;;;5015013;28;20056;-72
2022/08/30 09:14:34;;;;;;;31.38;28.88;;;17.80;99.90;;;;;;5011449;28;20660;-70
2022/08/30 09:17:08;;;;;;;;;;;18.00;99.90;;;;;;5012713;28;20080;-70
2022/08/30 09:19:59;;;;;;;31.80;29.27;;;18.30;99.90;;;;;;5002994;28;19929;-70
2022/08/30 09:22:34;;;;;;;31.30;28.65;;;18.60;99.90;;;;;;4996040;28;20076;-72
2022/08/30 09:25:03;;;;;;;31.80;29.10;;;18.10;99.90;;;;;;5011805;28;20054;-71
2022/08/30 09:27:36;;;;;;;32.20;29.50;;;18.10;99.90;;;;;;4981391;28;20552;-70
2022/08/30 09:30:14;;;;;;;30.00;27.50;;;17.70;99.90;;;;;;5011771;28;20046;-70
2022/08/30 09:32:55;;;;;;;30.40;27.63;;;17.50;99.90;;;;;;5011092;28;20045;-71
2022/08/30 09:35:25;;;;;;;28.98;26.48;;;17.30;99.90;;;;;;5007711;28;20081;-71
2022/08/30 09:37:55;;;;;;;30.42;28.00;;;17.80;99.90;;;;;;4998196;28;20052;-71
2022/08/30 09:40:59;;;;;;;29.10;26.83;;;18.00;99.90;;;;;;5008749;28;20533;-71
2022/08/30 09:43:29;;;;;;;31.08;28.55;;;18.00;99.90;;;;;;4943058;28;20052;-70
2022/08/30 09:45:58;;;;;;;30.50;27.83;;;18.30;99.90;;;;;;5003416;28;20575;-71
2022/08/30 09:48:33;;;;;;;29.67;27.48;;;18.30;99.90;;;;;;5009380;28;20451;-71
2022/08/30 09:51:10;;;;;;;30.75;28.20;;;18.10;99.90;;;;;;5012283;28;20592;-71
2022/08/30 09:53:46;;;;;;;28.73;26.63;;;18.20;99.90;;;;;;5011024;28;20551;-70
2022/08/30 09:56:53;;;;;;;31.15;28.55;;;18.30;99.90;;;;;;4992394;28;20049;-70
2022/08/30 09:59:22;;;;;;;30.33;27.92;;;18.80;99.90;;;;;;4999894;28;20046;-72
2022/08/30 10:01:59;;;;;;;30.23;28.02;;;18.80;99.90;;;;;;5009651;28;20061;-71
2022/08/30 10:04:47;;;;;;;29.80;27.10;;;18.90;99.90;;;;;;5009256;28;20041;-71
2022/08/30 10:07:24;;;;;;;29.55;27.27;;;19.40;99.90;;;;;;5001150;28;20087;-71
2022/08/30 10:10:20;;;;;;;29.77;27.58;;;19.50;99.90;;;;;;5011748;28;20069;-73
2022/08/30 10:13:05;;;;;;;29.70;27.65;;;19.40;99.90;;;;;;4985284;28;20037;-73
2022/08/30 10:15:42;;;;;;;28.85;26.70;;;19.40;99.90;;;;;;5013175;28;20115;-73
2022/08/30 10:18:28;;;;;;;30.23;27.92;;;19.30;99.90;;;;;;4993469;28;20114;-72
2022/08/30 10:21:11;;;;;;;28.98;27.08;;;19.70;99.90;;;;;;5009756;28;20504;-72
2022/08/30 10:23:59;;;;;;;29.20;27.17;;;19.60;99.90;;;;;;5009153;28;20126;-72
2022/08/30 10:26:30;;;;;;;28.60;26.50;;;19.60;99.90;;;;;;5008249;28;20577;-73
2022/08/30 10:29:11;;;;;;;28.98;26.38;;;19.50;99.90;;;;;;5012899;28;20069;-74
2022/08/30 10:31:52;;;;;;;28.83;26.90;;;19.70;99.90;;;;;;5004105;28;20037;-73
2022/08/30 10:34:27;;;;;;;29.58;27.58;;;19.50;99.90;;;;;;4998841;28;20045;-73
2022/08/30 10:37:05;;;;;;;28.45;26.35;;;19.60;99.90;;;;;;5016356;28;20041;-71
2022/08/30 10:39:41;;;;;;;28.75;26.65;;;19.80;99.90;;;;;;5015656;28;20061;-72
2022/08/30 10:42:16;;;;;;;28.25;26.25;;;20.00;99.90;;;;;;4989774;28;20078;-73
2022/08/30 10:44:48;;;;;;;28.38;26.40;;;20.10;99.90;;;;;;4987408;28;20511;-73
2022/08/30 10:47:41;;;;;;;28.42;26.42;;;20.40;99.90;;;;;;4995635;28;20073;-73
2022/08/30 10:50:47;;;;;;;29.02;27.17;;;20.60;99.90;;;;;;5007122;28;20135;-72
2022/08/30 10:53:30;;;;;;;28.67;26.75;;;20.50;99.90;;;;;;4919972;29;20092;-72
2022/08/30 10:56:06;;;;;;;28.50;26.60;;;20.50;99.90;;;;;;5014247;28;20466;-73
2022/08/30 10:58:37;;;;;;;27.52;25.58;;;20.30;99.90;;;;;;4997249;28;20045;-72
2022/08/30 11:01:24;;;;;;;28.40;26.60;;;20.70;99.90;;;;;;4980469;28;20057;-72
2022/08/30 11:04:12;;;;;;;28.38;26.35;;;21.00;99.90;;;;;;5017334;28;20530;-75
2022/08/30 11:07:05;;;;;;;28.27;26.08;;;21.00;99.90;;;;;;5014997;28;20180;-75
2022/08/30 11:09:36;;;;;;;29.83;27.77;;;20.60;99.90;;;;;;5005594;28;20042;-74
2022/08/30 11:12:31;;;;;;;29.77;27.55;;;21.20;99.90;;;;;;4991403;28;20041;-74
2022/08/30 11:15:10;;;;;;;29.08;26.92;;;21.50;99.90;;;;;;5016778;28;20045;-75
2022/08/30 11:17:51;;;;;;;29.13;27.13;;;21.40;99.90;;;;;;4990740;28;20479;-75
2022/08/30 11:20:29;;;;;;;28.98;27.08;;;21.70;99.90;;;;;;4994172;28;20244;-73
2022/08/30 11:23:20;;;;;;;30.00;27.92;;;21.40;99.90;;;;;;5014426;28;20112;-74
2022/08/30 11:26:05;;;;;;;28.88;26.88;;;21.30;99.90;;;;;;5007663;28;20038;-73
2022/08/30 11:28:36;;;;;;;28.27;26.42;;;20.90;99.90;;;;;;4998657;28;20046;-74
2022/08/30 11:31:21;;;;;;;27.33;25.52;;;21.30;99.90;;;;;;5017137;28;20108;-75
2022/08/30 11:33:55;;;;;;;27.67;25.88;;;21.80;99.90;;;;;;4999676;28;20057;-74
2022/08/30 11:36:29;;;;;;;26.73;25.13;;;21.70;99.90;;;;;;4993721;28;20130;-74
2022/08/30 11:39:34;;;;;;;26.55;24.75;;;21.60;99.90;;;;;;4996972;28;20456;-73
2022/08/30 11:42:11;;;;;;;27.02;25.17;;;22.20;99.90;;;;;;5006982;28;20044;-77
2022/08/30 11:44:39;;;;;;;26.98;25.27;;;22.50;99.90;;;;;;5001766;28;20045;-75
2022/08/30 11:47:46;;;;;;;27.63;25.58;;;21.80;99.90;;;;;;5016191;28;20045;-73
2022/08/30 11:50:35;;;;;;;26.70;25.00;;;21.40;99.90;;;;;;5016940;28;20504;-74
2022/08/30 11:53:13;;;;;;;26.65;24.85;;;21.50;99.90;;;;;;5000609;28;20165;-74
2022/08/30 11:56:25;;;;;;;27.88;26.00;;;22.30;99.90;;;;;;4990785;28;20076;-72
2022/08/30 11:59:29;;;;;;;26.63;25.08;;;22.20;99.90;;;;;;5014383;28;20095;-72
2022/08/30 12:01:56;;;;;;;27.33;25.40;;;22.20;99.90;;;;;;5008483;28;20042;-75
2022/08/30 12:04:45;;;;;;;25.85;24.17;;;22.10;99.90;;;;;;4980654;28;20419;-75
2022/08/30 12:07:51;;;;;;;27.30;25.58;;;22.20;99.90;;;;;;5015563;28;20091;-73
2022/08/30 12:10:34;;;;;;;27.20;25.25;;;22.20;99.90;;;;;;5009088;28;20046;-75
2022/08/30 12:13:02;;;;;;;26.73;24.85;;;22.60;99.90;;;;;;4994553;28;20597;-75
2022/08/30 12:15:55;;;;;;;28.55;26.55;;;22.70;99.90;;;;;;5007477;28;20041;-73
2022/08/30 12:18:27;;;;;;;27.00;25.20;;;22.30;99.90;;;;;;5006432;28;20539;-76
2022/08/30 12:21:12;;;;;;;26.65;24.80;;;22.10;99.90;;;;;;4990504;28;20053;-75
2022/08/30 12:23:51;;;;;;;27.80;25.45;;;22.40;99.90;;;;;;4997301;28;20096;-75
2022/08/30 12:26:25;;;;;;;27.17;25.45;;;21.90;99.90;;;;;;5005017;28;20052;-75
2022/08/30 12:29:13;;;;;;;25.75;24.05;;;22.20;99.90;;;;;;4993474;28;20042;-74
2022/08/30 12:32:03;;;;;;;26.52;24.77;;;23.00;99.90;;;;;;4970591;28;20582;-74
2022/08/30 12:34:54;;;;;;;26.60;25.00;;;23.30;99.90;;;;;;4999040;28;20433;-74
2022/08/30 12:37:32;;;;;;;26.90;25.10;;;22.80;99.90;;;;;;4997916;28;20081;-73
2022/08/30 12:40:21;;;;;;;27.77;26.00;;;22.20;99.90;;;;;;4992474;28;20045;-74
2022/08/30 12:42:59;;;;;;;27.05;25.35;;;21.90;99.90;;;;;;5015064;28;20045;-73
2022/08/30 12:45:38;;;;;;;26.85;25.25;;;21.80;99.90;;;;;;4996588;28;20061;-75
2022/08/30 12:48:10;;;;;;;26.80;25.10;;;22.20;99.90;;;;;;4992616;28;20076;-74
2022/08/30 12:50:50;;;;;;;27.35;25.38;;;22.40;99.90;;;;;;4989204;28;20522;-74
2022/08/30 12:53:35;;;;;;;27.20;25.50;;;22.20;99.90;;;;;;5015126;28;20616;-75
2022/08/30 12:56:14;;;;;;;27.05;25.02;;;21.90;99.90;;;;;;5012861;28;20061;-74
2022/08/30 12:58:51;;;;;;;26.20;24.40;;;22.40;99.90;;;;;;5012934;28;20038;-75
2022/08/30 13:01:29;;;;;;;25.60;24.00;;;22.90;99.90;;;;;;4993346;28;20135;-76